Time;durP1;ratioP1;P1;durP2;ratioP2;P2;SDS_P1;SDS_P2;PMS_P1;PMS_P2;Temp;Humidity;BMP_temperature;BMP_pressure;BME280_temperature;BME280_humidity;BME280_pressure;Samples;Min_cycle;Max_cycle;Signal;HPM_P1;HPM_P2
2021/12/10 08:01:44;;;;;;;4.70;1.70;;;;;;;;;;12816937;23;20040;-84
2021/12/10 08:07:26;;;;;;;6.57;1.50;;;;;;;;;;12862503;23;19992;-84
2021/12/10 08:13:02;;;;;;;4.78;2.10;;;;;;;;;;12690109;23;20089;-82
2021/12/10 08:18:04;;;;;;;5.57;1.88;;;;;;;;;;12667295;23;20018;-83
2021/12/10 08:23:05;;;;;;;4.95;2.28;;;;;;;;;;12667294;23;20002;-82
2021/12/10 08:28:34;;;;;;;4.75;2.35;;;;;;;;;;12866456;23;20004;-85
2021/12/10 08:33:35;;;;;;;6.50;2.90;;;;;;;;;;12885560;23;20512;-82
2021/12/10 08:38:36;;;;;;;;;;;;;;;;;;12859584;23;20011;-82
2021/12/10 08:43:43;;;;;;;6.72;2.40;;;;;;;;;;12883572;23;19939;-83
2021/12/10 08:48:48;;;;;;;4.22;2.00;;;;;;;;;;12859819;23;20448;-83
2021/12/10 08:53:49;;;;;;;4.45;2.53;;;;;;;;;;12857028;23;20077;-84
2021/12/10 08:58:56;;;;;;;4.20;2.38;;;;;;;;;;12857514;23;20008;-83
2021/12/10 09:04:12;;;;;;;3.80;1.88;;;;;;;;;;12884860;23;20047;-83
2021/12/10 09:09:48;;;;;;;6.20;2.13;;;;;;;;;;12885160;23;20001;-84
2021/12/10 09:14:54;;;;;;;4.63;1.90;;;;;;;;;;12853878;23;20120;-82
2021/12/10 09:19:57;;;;;;;3.35;1.70;;;;;;;;;;12856681;23;20016;-84
2021/12/10 09:25:06;;;;;;;5.00;1.60;;;;;;;;;;12886194;23;20000;-83
2021/12/10 09:35:54;;;;;;;4.85;2.20;;;;;;;;;;12879948;23;20008;-87
2021/12/10 09:52:45;;;;;;;6.07;2.72;;;;;;;;;;12509594;23;20015;-87
2021/12/10 10:04:01;;;;;;;7.03;2.28;;;;;;;;;;12657157;23;20018;-88
2021/12/10 10:26:16;;;;;;;5.97;1.73;;;;;;;;;;12690529;23;20018;-90
2021/12/10 10:54:35;;;;;;;5.47;1.60;;;;;;;;;;12634775;23;20011;-90
2021/12/10 11:11:45;;;;;;;5.53;1.95;;;;;;;;;;12696233;23;20018;-88
2021/12/10 13:59:08;;;;;;;6.95;2.78;;;;;;;;;;12811874;23;20021;-86
2021/12/10 14:04:14;;;;;;;5.07;2.40;;;;;;;;;;12793767;23;20351;-87
2021/12/10 14:09:31;;;;;;;6.28;2.08;;;;;;;;;;12851241;23;20050;-86
2021/12/10 14:14:40;;;;;;;3.60;1.95;;;;;;;;;;12879334;23;20032;-85
2021/12/10 14:19:41;;;;;;;4.97;2.80;;;;;;;;;;12837263;23;20063;-86
2021/12/10 14:25:20;;;;;;;5.15;1.85;;;;;;;;;;12848062;23;20008;-86
2021/12/10 14:36:57;;;;;;;5.90;2.63;;;;;;;;;;12875282;23;20008;-86
2021/12/10 14:47:59;;;;;;;3.47;2.03;;;;;;;;;;12857384;23;20030;-86
2021/12/10 14:53:24;;;;;;;5.43;1.98;;;;;;;;;;12864822;23;20119;-84
2021/12/10 14:58:25;;;;;;;4.63;2.10;;;;;;;;;;12847697;23;20114;-84
2021/12/10 15:03:35;;;;;;;4.22;2.00;;;;;;;;;;12863254;23;20013;-83
2021/12/10 15:09:11;;;;;;;5.03;2.00;;;;;;;;;;12864852;23;20036;-88
2021/12/10 15:19:56;;;;;;;4.07;1.77;;;;;;;;;;12862372;23;20012;-86
2021/12/10 15:24:58;;;;;;;3.67;1.77;;;;;;;;;;12854554;23;20072;-89
2021/12/10 15:30:35;;;;;;;5.10;2.30;;;;;;;;;;12857984;23;20015;-86
2021/12/10 15:35:51;;;;;;;4.28;2.72;;;;;;;;;;12880042;23;20016;-87
2021/12/10 15:46:29;;;;;;;3.83;2.35;;;;;;;;;;12882789;23;20017;-88
2021/12/10 15:51:37;;;;;;;3.80;2.33;;;;;;;;;;12854824;23;20008;-86
2021/12/10 15:56:40;;;;;;;5.22;2.30;;;;;;;;;;12856528;23;20023;-87
2021/12/10 16:01:52;;;;;;;6.72;3.58;;;;;;;;;;12858284;23;20016;-87
2021/12/10 16:06:54;;;;;;;4.13;2.80;;;;;;;;;;12857549;23;20024;-87
2021/12/10 16:11:56;;;;;;;3.78;2.60;;;;;;;;;;12857798;23;20348;-87
2021/12/10 16:16:58;;;;;;;4.30;2.50;;;;;;;;;;12870160;23;20005;-85
2021/12/10 16:22:10;;;;;;;4.45;3.00;;;;;;;;;;12858076;23;20004;-87
2021/12/10 16:27:37;;;;;;;5.07;3.33;;;;;;;;;;12855825;23;20017;-85
2021/12/10 16:32:40;;;;;;;6.43;3.38;;;;;;;;;;12890073;23;20012;-84
2021/12/10 16:37:47;;;;;;;4.88;2.78;;;;;;;;;;12864736;23;20076;-84
2021/12/10 16:42:50;;;;;;;5.40;3.05;;;;;;;;;;12851995;23;20005;-84
2021/12/10 16:47:51;;;;;;;4.82;3.10;;;;;;;;;;12849587;23;20009;-84
2021/12/10 16:52:52;;;;;;;;;;;;;;;;;;12850990;23;20023;-84
2021/12/10 16:57:55;;;;;;;7.70;4.40;;;;;;;;;;12879451;23;19912;-85
2021/12/10 17:03:01;;;;;;;8.48;4.80;;;;;;;;;;12854247;23;19997;-85
2021/12/10 17:08:24;;;;;;;5.47;3.50;;;;;;;;;;12900966;23;20065;-85
2021/12/10 17:13:50;;;;;;;5.03;3.70;;;;;;;;;;12849818;23;20420;-87
2021/12/10 17:19:06;;;;;;;6.03;2.95;;;;;;;;;;12864544;23;20201;-87
2021/12/10 17:24:09;;;;;;;6.95;4.35;;;;;;;;;;12888824;23;20072;-85
2021/12/10 17:34:43;;;;;;;8.07;5.00;;;;;;;;;;12858101;23;20008;-87
2021/12/10 17:45:26;;;;;;;8.13;5.38;;;;;;;;;;12900131;23;20001;-87
2021/12/10 17:50:48;;;;;;;7.18;5.18;;;;;;;;;;12859169;23;20333;-86
2021/12/10 17:56:04;;;;;;;;;;;;;;;;;;12862607;23;20009;-86
2021/12/10 18:01:11;;;;;;;7.00;4.97;;;;;;;;;;12868270;23;19908;-85
2021/12/10 18:12:01;;;;;;;8.10;5.68;;;;;;;;;;12893429;23;19996;-85
2021/12/10 18:23:17;;;;;;;7.13;5.00;;;;;;;;;;12886193;23;20005;-88
2021/12/10 18:34:35;;;;;;;8.40;4.82;;;;;;;;;;12875029;23;19996;-87
2021/12/10 18:40:25;;;;;;;9.30;5.35;;;;;;;;;;12903196;23;20016;-86
2021/12/10 18:45:48;;;;;;;9.18;6.10;;;;;;;;;;12863787;23;20000;-83
2021/12/10 18:51:10;;;;;;;6.88;5.03;;;;;;;;;;12891582;23;20001;-83
2021/12/10 18:56:15;;;;;;;6.68;5.10;;;;;;;;;;12892573;23;20011;-82
2021/12/10 19:01:47;;;;;;;9.63;6.25;;;;;;;;;;12882446;23;20036;-84
2021/12/10 19:07:13;;;;;;;8.50;5.75;;;;;;;;;;12912567;23;20075;-84
2021/12/10 19:18:17;;;;;;;10.15;6.85;;;;;;;;;;12886786;23;20012;-84
2021/12/10 19:23:42;;;;;;;8.35;5.70;;;;;;;;;;12847938;23;20009;-84
2021/12/10 19:29:33;;;;;;;10.65;7.68;;;;;;;;;;12875760;23;20009;-85
2021/12/10 19:40:23;;;;;;;9.98;6.85;;;;;;;;;;12820520;23;20492;-85
2021/12/10 19:45:44;;;;;;;9.98;7.85;;;;;;;;;;12819997;23;20048;-85
2021/12/10 19:50:58;;;;;;;10.83;7.63;;;;;;;;;;12815247;23;20009;-84
2021/12/10 21:09:52;;;;;;;13.93;10.68;;;;;;;;;;12944640;23;20000;-84
2021/12/10 21:49:05;;;;;;;10.02;7.97;;;;;;;;;;12938789;23;20008;-85
